Terminal Aerodrome Forecast
Issued by NWS Charleston, WV

Current Version | Previous Version | Graphics & Text | Print | Product List | Glossary On
Versions: 1 2 3 4 5 6 7 8 9 10 11 12 13 14 15 16 17 18 19 20 21 22 23 24 25
044
FTUS41 KRLX 042028 AAC
TAFHTS
TAF AMD
KHTS 042028Z 0420/0518 30007KT 3SM SHRA VCTS OVC035CB
     FM042100 24006KT 5SM SHRA VCTS OVC030CB
     FM050100 28005KT 4SM SHRA BKN030
     FM050300 28005KT P6SM BKN040
     FM051300 29006KT P6SM BKN035
     FM051600 30005KT 3SM SHRA BR OVC012=

USA.gov is the U.S. government's official web portal to all federal, state and local government web resources and services.